CheckWX is a tool to help pilots better visualize weather data.  It is not intended as a substitute for an official pre-flight weather briefing.

12:31:03 UTC

EKBI TAF
Billund Airport
Billund, Denmark
TAF EKBI 261047Z 2612/2712 29012KT 9999 BKN020 TEMPO 2618/2623 4000 -RADZ BKN008 BECMG 2623/2702 3000 -RADZ BR BKN005 BECMG 2702/2704 0500 FG VV001 TEMPO 2704/2709 2000 BCFG BR BKN003 BECMG 2709/2711 5000 BR SCT005 BKN010 TEMPO 2711/2712 3000 BKN005

Mar-26@
12:00 UTC

Mar-26 @ 12:00 UTC

Mar-26@
23:00 UTC

Mar-26 @ 23:00 UTC

TAF EKBI 261047Z 2612/2712 29012KT 9999 BKN020
Wind
  • 290° at 12 KTS
Cloud Levels
  • Broken at 2,000' AGL

Mar-26@
18:00 UTC

Mar-26 @ 18:00 UTC

Mar-26@
23:00 UTC

Mar-26 @ 23:00 UTC

TEMPO 2618/2623 4000 -RADZ BKN008

Temporary

Temporary Changes expected for less than half the time period

Conditions
Light Rain, Light Drizzle
Cloud Levels
  • Broken at 800' AGL

Mar-26@
23:00 UTC

Mar-26 @ 23:00 UTC

Mar-27@
02:00 UTC

Mar-27 @ 02:00 UTC

BECMG 2623/2702 3000 -RADZ BR BKN005

Becoming

Becoming Conditions expected by Wed, Mar 27, 2019 @ 02:00 UTC

Wind
  • 290° at 12 KTS
Conditions
Light Rain, Light Drizzle, Mist
Cloud Levels
  • Broken at 500' AGL

Mar-27@
02:00 UTC

Mar-27 @ 02:00 UTC

Mar-27@
09:00 UTC

Mar-27 @ 09:00 UTC

BECMG 2702/2704 0500 FG VV001

Becoming

Becoming Conditions expected by Wed, Mar 27, 2019 @ 04:00 UTC

Wind
  • 290° at 12 KTS
Conditions
Fog
Cloud Levels
  • Vertical visibility at 100' AGL

Mar-27@
04:00 UTC

Mar-27 @ 04:00 UTC

Mar-27@
09:00 UTC

Mar-27 @ 09:00 UTC

TEMPO 2704/2709 2000 BCFG BR BKN003

Temporary

Temporary Changes expected for less than half the time period

Conditions
Patches of Fog, Mist
Cloud Levels
  • Broken at 300' AGL

Mar-27@
09:00 UTC

Mar-27 @ 09:00 UTC

Mar-27@
12:00 UTC

Mar-27 @ 12:00 UTC

BECMG 2709/2711 5000 BR SCT005 BKN010

Becoming

Becoming Conditions expected by Wed, Mar 27, 2019 @ 11:00 UTC

Wind
  • 290° at 12 KTS
Conditions
Mist
Cloud Levels
  • Scattered at 500' AGL
  • Broken at 1,000' AGL

Mar-27@
11:00 UTC

Mar-27 @ 11:00 UTC

Mar-27@
12:00 UTC

Mar-27 @ 12:00 UTC

TEMPO 2711/2712 3000 BKN005

Temporary

Temporary Changes expected for less than half the time period

Cloud Levels
  • Broken at 500' AGL